Time;durP1;ratioP1;P1;durP2;ratioP2;P2;SDS_P1;SDS_P2;PMS_P1;PMS_P2;Temp;Humidity;BMP_temperature;BMP_pressure;BME280_temperature;BME280_humidity;BME280_pressure;Samples;Min_cycle;Max_cycle;Signal;HPM_P1;HPM_P2
2023/04/18 00:02:18;;;;;;;15.55;8.68;;;8.10;99.90;;;;;;4930790;28;20112;-66
2023/04/18 00:04:45;;;;;;;14.57;8.05;;;8.00;99.90;;;;;;4948937;28;20494;-66
2023/04/18 00:07:14;;;;;;;13.50;8.18;;;8.00;99.90;;;;;;4930228;29;20052;-66
2023/04/18 00:09:42;;;;;;;17.83;8.40;;;8.00;99.90;;;;;;4914811;28;20055;-65
2023/04/18 00:12:09;;;;;;;17.90;8.88;;;8.00;99.90;;;;;;4922697;29;20032;-65
2023/04/18 00:14:36;;;;;;;17.17;8.02;;;7.90;99.90;;;;;;4917588;29;20628;-66
2023/04/18 00:17:03;;;;;;;17.88;8.38;;;7.90;99.90;;;;;;4917226;29;20028;-65
2023/04/18 00:19:29;;;;;;;18.48;9.10;;;7.90;99.90;;;;;;4924341;29;20038;-66
2023/04/18 00:21:54;;;;;;;16.42;7.80;;;7.90;99.90;;;;;;4920447;29;20028;-66
2023/04/18 00:24:20;;;;;;;14.85;8.63;;;7.90;99.90;;;;;;4905807;28;20498;-65
2023/04/18 00:26:47;;;;;;;15.52;7.95;;;7.80;99.90;;;;;;4925869;28;20528;-65
2023/04/18 00:29:13;;;;;;;19.70;9.43;;;7.80;99.90;;;;;;4926107;29;20030;-65
2023/04/18 00:31:38;;;;;;;14.50;8.85;;;7.70;99.90;;;;;;4922302;28;20031;-66
2023/04/18 00:34:04;;;;;;;12.85;8.05;;;7.70;99.90;;;;;;4931187;29;20059;-66
2023/04/18 00:36:30;;;;;;;15.48;8.60;;;7.70;99.90;;;;;;4928240;29;20037;-65
2023/04/18 00:38:55;;;;;;;17.13;9.68;;;7.60;99.90;;;;;;4928525;29;20064;-65
2023/04/18 00:41:24;;;;;;;16.67;8.70;;;7.60;99.90;;;;;;4927891;28;20042;-66
2023/04/18 00:43:49;;;;;;;16.20;8.63;;;7.60;99.90;;;;;;4928853;29;20023;-66
2023/04/18 00:46:15;;;;;;;15.48;8.85;;;7.50;99.90;;;;;;4918057;28;20078;-65
2023/04/18 00:48:41;;;;;;;17.35;8.48;;;7.50;99.90;;;;;;4929313;29;20036;-65
2023/04/18 00:51:08;;;;;;;18.30;8.85;;;7.50;99.90;;;;;;4928364;29;20030;-65
2023/04/18 00:53:34;;;;;;;15.40;9.13;;;7.40;99.90;;;;;;4926328;29;20020;-65
2023/04/18 00:56:01;;;;;;;16.90;8.95;;;7.40;99.90;;;;;;4922170;28;20011;-65
2023/04/18 00:58:26;;;;;;;17.65;8.75;;;7.40;99.90;;;;;;4925861;29;20102;-65
2023/04/18 01:00:53;;;;;;;17.45;9.50;;;7.40;99.90;;;;;;4923706;28;20488;-67
2023/04/18 01:03:21;;;;;;;16.08;8.52;;;7.30;99.90;;;;;;4929767;28;20069;-65
2023/04/18 01:05:47;;;;;;;17.95;8.93;;;7.30;99.90;;;;;;4931685;29;20477;-65
2023/04/18 01:08:13;;;;;;;18.48;9.35;;;7.30;99.90;;;;;;4930940;29;20042;-66
2023/04/18 01:10:39;;;;;;;14.05;8.23;;;7.30;99.90;;;;;;4916019;28;20078;-65
2023/04/18 01:13:16;;;;;;;16.27;8.50;;;7.30;99.90;;;;;;4927754;29;20052;-66
2023/04/18 01:15:43;;;;;;;13.77;8.55;;;7.20;99.90;;;;;;4930702;29;20127;-66
2023/04/18 01:18:10;;;;;;;17.85;9.27;;;7.20;99.90;;;;;;4925610;29;20355;-65
2023/04/18 01:20:42;;;;;;;20.13;9.98;;;7.30;99.90;;;;;;4931625;29;20081;-65
2023/04/18 01:23:11;;;;;;;19.20;9.25;;;7.20;99.90;;;;;;4931619;29;20028;-66
2023/04/18 01:25:37;;;;;;;15.98;9.38;;;7.20;99.90;;;;;;4920655;28;20043;-66
2023/04/18 01:28:03;;;;;;;15.88;9.73;;;7.20;99.90;;;;;;4923700;28;20358;-65
2023/04/18 01:30:29;;;;;;;18.08;9.90;;;7.10;99.90;;;;;;4922420;29;20153;-65
2023/04/18 01:32:54;;;;;;;16.38;9.10;;;7.10;99.90;;;;;;4921107;29;20111;-65
2023/04/18 01:35:20;;;;;;;13.88;8.35;;;7.10;99.90;;;;;;4927054;28;20440;-65
2023/04/18 01:37:46;;;;;;;21.30;9.27;;;7.00;99.90;;;;;;4920278;29;20528;-65
2023/04/18 01:40:11;;;;;;;17.05;9.80;;;7.00;99.90;;;;;;4916964;28;20063;-65
2023/04/18 01:42:37;;;;;;;17.42;9.43;;;6.90;99.90;;;;;;4924603;28;20032;-65
2023/04/18 01:45:04;;;;;;;16.63;9.35;;;6.90;99.90;;;;;;4919961;29;20111;-65
2023/04/18 01:47:29;;;;;;;20.95;9.82;;;6.80;99.90;;;;;;4925238;29;20044;-65
2023/04/18 01:49:55;;;;;;;18.48;9.23;;;6.70;99.90;;;;;;4921806;28;20443;-65
2023/04/18 01:52:21;;;;;;;19.58;9.45;;;6.60;99.90;;;;;;4923130;29;20024;-66
2023/04/18 01:54:46;;;;;;;16.70;9.05;;;6.60;99.90;;;;;;4926970;29;20034;-65
2023/04/18 01:57:12;;;;;;;18.83;9.65;;;6.50;99.90;;;;;;4919449;28;20115;-64
2023/04/18 01:59:37;;;;;;;15.15;8.80;;;6.50;99.90;;;;;;4922618;28;20043;-64
2023/04/18 02:02:03;;;;;;;18.70;9.70;;;6.40;99.90;;;;;;4921558;28;20567;-65
2023/04/18 02:04:28;;;;;;;18.83;9.07;;;6.40;99.90;;;;;;4921013;28;20047;-64
2023/04/18 02:06:54;;;;;;;16.73;9.00;;;6.40;99.90;;;;;;4920142;28;20047;-65
2023/04/18 02:09:20;;;;;;;26.33;8.60;;;6.30;99.90;;;;;;4902922;28;20044;-65
2023/04/18 02:11:45;;;;;;;20.10;9.88;;;6.30;99.90;;;;;;4926509;29;20020;-65
2023/04/18 02:14:11;;;;;;;22.83;10.38;;;6.20;99.90;;;;;;4927096;29;20541;-65
2023/04/18 02:16:37;;;;;;;18.67;10.18;;;6.20;99.90;;;;;;4926059;29;20023;-64
2023/04/18 02:19:03;;;;;;;19.55;10.90;;;6.10;99.90;;;;;;4927390;29;20032;-63
2023/04/18 02:21:29;;;;;;;18.85;10.13;;;6.00;99.90;;;;;;4927036;29;20046;-65
2023/04/18 02:23:55;;;;;;;17.35;9.88;;;5.90;99.90;;;;;;4925958;29;20477;-64
2023/04/18 02:26:21;;;;;;;18.45;10.25;;;5.90;99.90;;;;;;4923065;29;20032;-65
2023/04/18 02:28:47;;;;;;;16.30;9.60;;;5.80;99.90;;;;;;4926836;28;20446;-64
2023/04/18 02:31:13;;;;;;;19.42;10.10;;;5.80;99.90;;;;;;4924718;28;20066;-65
2023/04/18 02:33:43;;;;;;;20.00;9.98;;;5.80;99.90;;;;;;4935264;28;20328;-65
2023/04/18 02:36:10;;;;;;;18.38;9.57;;;5.80;99.90;;;;;;4933101;29;20056;-65
2023/04/18 02:38:36;;;;;;;17.02;9.40;;;5.70;99.90;;;;;;4925486;29;20043;-63
2023/04/18 02:41:01;;;;;;;16.73;9.20;;;5.70;99.90;;;;;;4927185;28;20035;-65
2023/04/18 02:43:28;;;;;;;20.95;11.48;;;5.60;99.90;;;;;;4923600;28;20032;-65
2023/04/18 02:45:53;;;;;;;18.33;9.65;;;5.70;99.90;;;;;;4930508;29;20019;-66
2023/04/18 02:48:19;;;;;;;21.88;9.25;;;5.70;99.90;;;;;;4931399;28;20043;-64
2023/04/18 02:50:44;;;;;;;17.88;9.50;;;5.70;99.90;;;;;;4929315;28;20047;-65
2023/04/18 02:53:10;;;;;;;19.80;10.52;;;5.70;99.90;;;;;;4922130;29;20026;-64
2023/04/18 02:55:36;;;;;;;20.13;9.27;;;5.70;99.90;;;;;;4927810;29;20024;-65
2023/04/18 02:58:01;;;;;;;17.08;9.60;;;5.60;99.90;;;;;;4923738;28;20061;-64
2023/04/18 03:00:27;;;;;;;20.23;9.75;;;5.60;99.90;;;;;;4925856;29;20528;-65
2023/04/18 03:02:53;;;;;;;18.58;9.73;;;5.50;99.90;;;;;;4928011;28;20081;-64
2023/04/18 03:05:18;;;;;;;22.77;9.07;;;5.40;99.90;;;;;;4926208;28;20028;-65
2023/04/18 03:07:44;;;;;;;16.90;8.80;;;5.30;99.90;;;;;;4929412;29;20475;-65
2023/04/18 03:10:10;;;;;;;19.10;9.82;;;5.20;99.90;;;;;;4912867;28;20036;-64
2023/04/18 03:12:35;;;;;;;17.90;8.82;;;5.10;99.90;;;;;;4921614;28;20063;-64
2023/04/18 03:15:01;;;;;;;16.42;9.20;;;5.00;99.90;;;;;;4920963;29;20026;-64
2023/04/18 03:17:27;;;;;;;14.52;8.20;;;5.00;99.90;;;;;;4918699;29;20036;-65
2023/04/18 03:19:52;;;;;;;22.63;9.90;;;5.00;99.90;;;;;;4923376;29;20032;-65
2023/04/18 03:22:18;;;;;;;17.55;9.07;;;5.00;99.90;;;;;;4925585;28;20040;-65
2023/04/18 03:24:44;;;;;;;16.42;9.73;;;5.10;99.90;;;;;;4927595;29;20028;-65
2023/04/18 03:27:11;;;;;;;16.17;9.45;;;5.20;99.90;;;;;;4927083;28;20111;-65
2023/04/18 03:29:37;;;;;;;19.17;8.55;;;5.30;99.90;;;;;;4918035;29;20036;-65
2023/04/18 03:32:03;;;;;;;18.60;9.02;;;5.30;99.90;;;;;;4926405;29;20047;-64
2023/04/18 03:34:28;;;;;;;14.93;8.88;;;5.40;99.90;;;;;;4925471;29;20481;-64
2023/04/18 03:36:54;;;;;;;19.20;7.95;;;5.40;99.90;;;;;;4925406;28;20036;-66
2023/04/18 03:39:20;;;;;;;17.50;8.18;;;5.30;99.90;;;;;;4924324;28;20025;-65
2023/04/18 03:41:45;;;;;;;14.25;8.45;;;5.30;99.90;;;;;;4926346;29;20054;-65
2023/04/18 03:44:11;;;;;;;14.90;8.68;;;5.30;99.90;;;;;;4925404;29;20024;-65
2023/04/18 03:46:36;;;;;;;17.33;9.15;;;5.30;99.90;;;;;;4918515;28;20097;-66
2023/04/18 03:49:02;;;;;;;18.50;8.73;;;5.30;99.90;;;;;;4923249;29;20028;-67
2023/04/18 03:51:33;;;;;;;14.23;7.75;;;5.30;99.90;;;;;;4921271;28;20028;-65
2023/04/18 03:53:58;;;;;;;16.83;9.02;;;5.30;99.90;;;;;;4929314;29;20028;-64
2023/04/18 03:56:24;;;;;;;18.05;8.80;;;5.20;99.90;;;;;;4926863;29;20055;-64
2023/04/18 03:58:50;;;;;;;14.60;7.90;;;5.20;99.90;;;;;;4924742;28;20028;-64
2023/04/18 04:01:16;;;;;;;18.23;8.55;;;5.10;99.90;;;;;;4925872;29;20381;-65
2023/04/18 04:03:41;;;;;;;16.67;8.05;;;5.10;99.90;;;;;;4921451;29;20057;-64
2023/04/18 04:06:07;;;;;;;18.65;8.80;;;5.10;99.90;;;;;;4922912;29;20036;-65
2023/04/18 04:08:33;;;;;;;15.60;8.88;;;5.10;99.90;;;;;;4928940;29;20094;-65
2023/04/18 04:10:58;;;;;;;18.40;9.57;;;5.10;99.90;;;;;;4910512;28;20048;-65
2023/04/18 04:13:24;;;;;;;19.45;9.63;;;5.00;99.90;;;;;;4927320;28;20668;-65
2023/04/18 04:15:50;;;;;;;16.52;9.10;;;5.00;99.90;;;;;;4929424;29;20473;-65
2023/04/18 04:18:16;;;;;;;18.10;9.32;;;5.10;99.90;;;;;;4925946;29;20086;-66
2023/04/18 04:20:42;;;;;;;18.38;9.15;;;5.10;99.90;;;;;;4917038;28;20031;-64
2023/04/18 04:23:08;;;;;;;16.65;8.90;;;5.10;99.90;;;;;;4921163;29;20020;-65
2023/04/18 04:25:34;;;;;;;16.38;9.02;;;5.10;99.90;;;;;;4925787;29;20039;-66
2023/04/18 04:28:00;;;;;;;19.23;9.25;;;5.10;99.90;;;;;;4921915;29;20061;-64
2023/04/18 04:30:27;;;;;;;20.95;9.00;;;5.00;99.90;;;;;;4922185;28;20040;-67
2023/04/18 04:32:53;;;;;;;22.52;10.23;;;5.10;99.90;;;;;;4923001;29;20024;-65
2023/04/18 04:35:19;;;;;;;17.77;9.98;;;5.10;99.90;;;;;;4926437;29;20031;-64
2023/04/18 04:37:45;;;;;;;19.60;9.60;;;5.10;99.90;;;;;;4928132;29;20500;-65
2023/04/18 04:40:11;;;;;;;24.42;10.32;;;5.20;99.90;;;;;;4918491;29;20040;-65
2023/04/18 04:42:39;;;;;;;20.60;8.90;;;5.20;99.90;;;;;;4924017;28;20472;-64
2023/04/18 04:45:07;;;;;;;15.70;8.38;;;5.20;99.90;;;;;;4918565;29;20048;-65
2023/04/18 04:47:32;;;;;;;18.92;10.85;;;5.20;99.90;;;;;;4925403;29;20050;-65
2023/04/18 04:49:58;;;;;;;18.52;9.10;;;5.20;99.90;;;;;;4921183;29;20032;-65
2023/04/18 04:52:23;;;;;;;16.85;8.85;;;5.20;99.90;;;;;;4921302;28;20032;-65
2023/04/18 04:54:50;;;;;;;21.77;10.02;;;5.20;99.90;;;;;;4920243;29;20417;-65
2023/04/18 04:57:15;;;;;;;16.38;9.07;;;5.20;99.90;;;;;;4923034;29;20066;-65
2023/04/18 04:59:41;;;;;;;17.30;9.32;;;5.20;99.90;;;;;;4922686;28;20060;-65
2023/04/18 05:02:07;;;;;;;18.40;9.57;;;5.20;99.90;;;;;;4922216;29;20035;-65
2023/04/18 05:04:32;;;;;;;17.83;9.25;;;5.30;99.90;;;;;;4920110;28;20405;-65
2023/04/18 05:06:58;;;;;;;14.95;8.52;;;5.30;99.90;;;;;;4922818;28;21717;-65
2023/04/18 05:09:25;;;;;;;21.23;10.13;;;5.40;99.90;;;;;;4921962;29;20042;-65
2023/04/18 05:11:50;;;;;;;17.23;9.30;;;5.50;99.90;;;;;;4906109;28;20144;-66
2023/04/18 05:14:16;;;;;;;18.33;9.52;;;5.70;99.90;;;;;;4921506;28;20657;-65
2023/04/18 05:16:42;;;;;;;16.17;8.90;;;5.90;99.90;;;;;;4927713;29;20466;-65
2023/04/18 05:19:08;;;;;;;16.13;8.10;;;6.00;99.90;;;;;;4922087;29;20059;-65
2023/04/18 05:21:33;;;;;;;15.77;8.70;;;6.10;99.90;;;;;;4921529;29;20035;-64
2023/04/18 05:23:59;;;;;;;16.90;8.93;;;6.20;99.90;;;;;;4922692;28;20780;-65
2023/04/18 05:26:25;;;;;;;17.52;8.68;;;6.30;99.90;;;;;;4921613;28;20506;-65
2023/04/18 05:28:50;;;;;;;17.05;8.27;;;6.30;99.90;;;;;;4928328;28;20032;-65
2023/04/18 05:31:16;;;;;;;14.63;7.57;;;6.30;99.90;;;;;;4924899;28;20028;-65
2023/04/18 05:33:42;;;;;;;17.02;8.07;;;6.40;99.90;;;;;;4926514;29;20035;-65
2023/04/18 05:36:07;;;;;;;15.75;7.65;;;6.80;99.90;;;;;;4929533;29;20107;-65
2023/04/18 05:38:33;;;;;;;14.77;7.88;;;7.20;99.90;;;;;;4929531;28;20035;-65
2023/04/18 05:40:59;;;;;;;12.23;7.47;;;7.60;99.90;;;;;;4925802;29;20027;-65
2023/04/18 05:43:25;;;;;;;11.00;6.55;;;7.90;99.90;;;;;;4927791;28;20035;-66
2023/04/18 05:45:54;;;;;;;19.17;8.05;;;8.20;99.90;;;;;;4929926;28;20091;-65
2023/04/18 05:48:21;;;;;;;14.10;7.50;;;8.50;99.90;;;;;;4926726;29;20028;-65
2023/04/18 05:50:47;;;;;;;14.98;7.13;;;8.60;99.90;;;;;;4925171;29;20035;-66
2023/04/18 05:53:12;;;;;;;15.48;7.90;;;8.60;99.90;;;;;;4929071;29;20023;-66
2023/04/18 05:55:39;;;;;;;14.98;7.45;;;8.70;99.90;;;;;;4923800;28;20043;-65
2023/04/18 05:58:05;;;;;;;11.65;6.63;;;8.90;99.90;;;;;;4924612;29;20053;-64
2023/04/18 06:00:31;;;;;;;14.73;7.32;;;9.00;99.90;;;;;;4916324;28;20407;-65
2023/04/18 06:02:56;;;;;;;18.63;7.05;;;9.20;99.90;;;;;;4919817;29;20462;-65
2023/04/18 06:05:22;;;;;;;13.75;7.30;;;9.60;99.90;;;;;;4922608;29;21544;-65
2023/04/18 06:07:48;;;;;;;12.90;7.03;;;9.80;99.90;;;;;;4923386;28;20401;-65
2023/04/18 06:10:14;;;;;;;13.27;6.40;;;9.90;99.90;;;;;;4926069;29;20149;-65
2023/04/18 06:12:40;;;;;;;12.23;6.30;;;10.40;99.90;;;;;;4907960;28;20047;-65
2023/04/18 06:15:06;;;;;;;13.45;7.63;;;11.00;99.90;;;;;;4920681;29;20031;-66
2023/04/18 06:17:33;;;;;;;11.45;6.57;;;11.60;99.90;;;;;;4924912;29;20048;-64
2023/04/18 06:19:59;;;;;;;12.48;6.28;;;12.00;99.90;;;;;;4924432;29;20488;-65
2023/04/18 06:22:25;;;;;;;15.65;7.45;;;12.30;99.90;;;;;;4928835;29;20028;-65
2023/04/18 06:24:50;;;;;;;12.10;6.57;;;12.60;99.90;;;;;;4923307;28;20056;-66
2023/04/18 06:27:16;;;;;;;10.82;6.10;;;13.20;99.00;;;;;;4921653;28;20062;-66
2023/04/18 06:29:42;;;;;;;10.68;5.85;;;13.80;98.20;;;;;;4928023;29;20027;-65
2023/04/18 06:32:08;;;;;;;9.88;6.00;;;14.20;97.40;;;;;;4926647;28;20070;-66
2023/04/18 06:34:33;;;;;;;9.05;6.00;;;14.90;96.80;;;;;;4926055;29;20024;-65
2023/04/18 06:36:59;;;;;;;8.20;6.10;;;15.20;95.00;;;;;;4926087;28;20115;-65
2023/04/18 06:39:26;;;;;;;10.85;5.72;;;15.90;94.40;;;;;;4925042;29;20440;-65
2023/04/18 06:41:52;;;;;;;12.75;6.38;;;16.40;93.80;;;;;;4923567;28;20658;-65
2023/04/18 06:44:17;;;;;;;11.82;6.53;;;16.50;92.90;;;;;;4918613;29;20032;-66
2023/04/18 06:46:43;;;;;;;10.90;6.65;;;15.90;92.50;;;;;;4925873;29;20781;-65
2023/04/18 06:49:09;;;;;;;11.23;6.22;;;15.20;93.50;;;;;;4927844;29;20024;-65
2023/04/18 06:51:34;;;;;;;11.30;7.22;;;14.10;94.70;;;;;;4916827;29;20386;-66
2023/04/18 06:54:00;;;;;;;10.25;6.82;;;12.80;96.70;;;;;;4927047;29;20067;-67
2023/04/18 06:56:26;;;;;;;13.25;7.22;;;12.00;97.70;;;;;;4925452;28;20028;-65
2023/04/18 06:58:51;;;;;;;15.05;6.40;;;11.50;98.60;;;;;;4927944;29;20119;-66
2023/04/18 07:01:17;;;;;;;12.27;6.70;;;11.10;99.90;;;;;;4920089;28;20032;-66
2023/04/18 07:03:43;;;;;;;10.70;6.43;;;10.80;99.90;;;;;;4914148;29;20056;-66
2023/04/18 07:06:09;;;;;;;8.15;5.13;;;10.50;99.90;;;;;;4921870;29;20060;-66
2023/04/18 07:08:35;;;;;;;10.32;5.93;;;10.10;99.90;;;;;;4924239;29;20039;-66
2023/04/18 07:11:01;;;;;;;9.68;5.13;;;10.20;99.90;;;;;;4927079;29;20393;-66
2023/04/18 07:13:26;;;;;;;11.48;6.03;;;10.00;99.90;;;;;;4905194;28;20144;-66
2023/04/18 07:15:52;;;;;;;12.00;5.32;;;9.80;99.90;;;;;;4926366;28;20048;-66
2023/04/18 07:18:18;;;;;;;9.48;5.88;;;9.80;99.90;;;;;;4928364;29;20111;-66
2023/04/18 07:20:43;;;;;;;15.45;6.13;;;9.70;99.90;;;;;;4925627;28;20024;-66
2023/04/18 07:23:09;;;;;;;11.05;5.75;;;9.80;99.90;;;;;;4931525;28;20499;-66
2023/04/18 07:25:35;;;;;;;9.18;5.68;;;9.90;99.90;;;;;;4931974;29;20038;-66
2023/04/18 07:28:01;;;;;;;11.65;5.50;;;9.90;99.90;;;;;;4928914;29;20036;-65
2023/04/18 07:30:27;;;;;;;10.15;4.78;;;10.20;99.90;;;;;;4928054;28;20553;-64
2023/04/18 07:32:52;;;;;;;11.70;5.50;;;10.40;99.90;;;;;;4930813;28;20069;-66
2023/04/18 07:35:18;;;;;;;8.75;5.00;;;10.50;99.90;;;;;;4932393;29;20020;-64
2023/04/18 07:37:44;;;;;;;11.68;5.63;;;10.90;99.90;;;;;;4932854;29;20024;-66
2023/04/18 07:40:10;;;;;;;9.27;5.25;;;11.10;99.90;;;;;;4931064;29;20024;-66
2023/04/18 07:42:36;;;;;;;9.38;5.43;;;11.10;99.90;;;;;;4929279;29;20481;-66
2023/04/18 07:45:02;;;;;;;8.23;5.00;;;11.10;99.90;;;;;;4932704;29;20035;-66
2023/04/18 07:47:27;;;;;;;10.27;4.88;;;11.00;99.90;;;;;;4931908;29;20031;-66
2023/04/18 07:49:53;;;;;;;10.07;5.03;;;11.20;99.90;;;;;;4931091;29;20034;-65
2023/04/18 07:52:19;;;;;;;9.93;5.53;;;11.30;99.90;;;;;;4930593;29;20059;-65
2023/04/18 07:54:44;;;;;;;11.57;5.05;;;11.50;99.90;;;;;;4932903;29;20035;-66
2023/04/18 07:57:10;;;;;;;7.45;4.93;;;12.60;99.70;;;;;;4931252;28;20031;-64
2023/04/18 07:59:36;;;;;;;5.93;4.38;;;14.10;97.00;;;;;;4927744;29;20047;-66
2023/04/18 08:02:02;;;;;;;10.60;5.80;;;14.00;97.70;;;;;;4926046;28;20089;-66
2023/04/18 08:04:28;;;;;;;7.90;5.70;;;14.10;97.10;;;;;;4925680;29;20126;-65
2023/04/18 08:06:54;;;;;;;8.30;5.45;;;14.10;96.70;;;;;;4932169;28;20408;-66
2023/04/18 08:09:20;;;;;;;10.27;5.10;;;14.50;97.10;;;;;;4954563;28;20035;-65
2023/04/18 08:11:46;;;;;;;13.93;4.85;;;15.60;94.70;;;;;;4911056;28;20551;-66
2023/04/18 08:14:12;;;;;;;6.70;4.53;;;15.70;95.00;;;;;;4938270;28;20111;-66
2023/04/18 08:16:38;;;;;;;7.13;4.97;;;15.80;94.80;;;;;;4932525;28;20103;-66
2023/04/18 08:19:03;;;;;;;7.97;4.50;;;16.10;93.40;;;;;;4922831;28;20031;-66
2023/04/18 08:21:30;;;;;;;7.32;3.97;;;16.20;93.50;;;;;;4929048;28;20093;-65
2023/04/18 08:23:56;;;;;;;6.43;4.63;;;16.90;92.10;;;;;;4926726;28;20043;-66
2023/04/18 08:26:22;;;;;;;10.63;5.13;;;16.60;91.90;;;;;;4922005;28;20032;-66
2023/04/18 08:28:47;;;;;;;10.52;4.90;;;16.00;93.10;;;;;;4923376;28;20035;-66
2023/04/18 08:31:13;;;;;;;8.05;5.28;;;15.30;93.40;;;;;;4931405;28;20069;-66
2023/04/18 08:33:40;;;;;;;6.28;4.53;;;14.80;93.60;;;;;;4928445;28;20027;-66
2023/04/18 08:36:05;;;;;;;8.63;5.22;;;14.40;95.40;;;;;;4926149;28;20400;-66
2023/04/18 08:38:31;;;;;;;6.93;4.82;;;14.40;96.20;;;;;;4929199;28;20028;-65
2023/04/18 08:40:57;;;;;;;8.88;5.68;;;14.30;95.90;;;;;;4927274;29;20082;-65
2023/04/18 08:43:24;;;;;;;7.88;4.95;;;14.20;96.20;;;;;;4924698;29;20042;-66
2023/04/18 08:45:51;;;;;;;8.35;4.63;;;14.10;96.30;;;;;;4932325;29;20020;-66
2023/04/18 08:48:17;;;;;;;8.13;4.53;;;13.90;96.00;;;;;;4930188;29;20024;-66
2023/04/18 08:50:43;;;;;;;8.63;5.25;;;13.70;96.90;;;;;;4929736;29;20028;-65
2023/04/18 08:53:09;;;;;;;9.00;5.28;;;13.50;97.00;;;;;;4929276;29;20635;-66
2023/04/18 08:55:36;;;;;;;10.27;4.80;;;13.10;97.10;;;;;;4932171;29;20099;-66
2023/04/18 08:58:05;;;;;;;9.85;4.70;;;13.00;98.00;;;;;;4929645;28;20123;-66
2023/04/18 09:00:31;;;;;;;10.25;4.85;;;12.90;98.30;;;;;;4930887;28;20032;-65
2023/04/18 09:02:57;;;;;;;7.53;4.80;;;12.60;97.60;;;;;;4926402;29;20146;-66
2023/04/18 09:05:25;;;;;;;6.72;4.45;;;12.90;98.30;;;;;;4931285;29;20035;-66
2023/04/18 09:07:53;;;;;;;7.90;4.43;;;12.80;98.00;;;;;;4928422;29;20036;-66
2023/04/18 09:10:32;;;;;;;7.75;4.63;;;13.30;98.10;;;;;;4928179;29;20474;-65
2023/04/18 09:13:01;;;;;;;11.25;5.05;;;13.40;97.00;;;;;;4909723;29;20066;-66
2023/04/18 09:15:28;;;;;;;7.80;4.22;;;13.50;97.10;;;;;;4931725;28;20032;-66
2023/04/18 09:17:59;;;;;;;8.77;4.47;;;13.60;97.40;;;;;;4926852;29;20020;-66
2023/04/18 09:20:36;;;;;;;6.78;4.28;;;13.50;97.30;;;;;;4913154;29;20043;-66
2023/04/18 09:23:09;;;;;;;10.38;3.50;;;13.20;97.40;;;;;;4920415;28;20021;-66
2023/04/18 09:25:41;;;;;;;6.70;4.07;;;13.40;96.80;;;;;;4930126;28;20035;-66
2023/04/18 09:28:28;;;;;;;7.32;4.57;;;13.10;96.80;;;;;;4927852;29;20023;-66
2023/04/18 09:31:07;;;;;;;7.53;4.63;;;13.60;96.50;;;;;;4924827;28;20031;-66
2023/04/18 09:33:33;;;;;;;5.90;4.10;;;14.10;95.70;;;;;;4929476;28;20020;-66
2023/04/18 09:36:19;;;;;;;7.10;4.25;;;15.20;95.20;;;;;;4924679;28;20036;-67
2023/04/18 09:38:48;;;;;;;7.15;4.63;;;16.20;93.90;;;;;;4928113;28;20031;-67
2023/04/18 09:41:15;;;;;;;5.85;3.78;;;16.30;93.30;;;;;;4930529;29;20032;-67
2023/04/18 09:43:42;;;;;;;8.63;4.55;;;15.80;93.80;;;;;;4920190;28;20063;-64
2023/04/18 09:46:08;;;;;;;7.60;4.50;;;15.10;94.40;;;;;;4928725;29;20154;-65
2023/04/18 09:48:34;;;;;;;10.40;4.05;;;14.60;95.20;;;;;;4929527;29;20028;-66
2023/04/18 09:51:12;;;;;;;6.78;4.30;;;14.30;95.70;;;;;;4926270;29;20078;-66
2023/04/18 09:53:40;;;;;;;7.07;4.15;;;14.20;96.20;;;;;;4927028;29;20036;-66
2023/04/18 09:56:18;;;;;;;10.13;3.92;;;14.10;96.40;;;;;;4913332;29;20028;-66
2023/04/18 09:58:47;;;;;;;5.75;4.07;;;14.90;96.40;;;;;;4926165;29;20020;-66
2023/04/18 10:01:12;;;;;;;6.78;4.20;;;15.80;95.30;;;;;;4925357;29;20035;-66
2023/04/18 10:03:44;;;;;;;7.13;4.35;;;15.90;95.20;;;;;;4929144;29;20040;-66
2023/04/18 10:06:13;;;;;;;8.95;4.43;;;15.60;94.00;;;;;;4919668;29;20417;-66
2023/04/18 10:08:39;;;;;;;8.57;4.30;;;15.40;94.40;;;;;;4926307;29;20028;-65
2023/04/18 10:11:05;;;;;;;7.00;4.30;;;14.90;94.80;;;;;;4922345;29;20080;-66
2023/04/18 10:13:33;;;;;;;7.57;4.53;;;14.80;96.00;;;;;;4910405;28;20051;-66
2023/04/18 10:15:59;;;;;;;7.53;4.25;;;14.20;96.30;;;;;;4929403;29;20381;-66
2023/04/18 10:18:24;;;;;;;7.28;4.30;;;14.40;96.20;;;;;;4925356;29;20549;-66
2023/04/18 10:21:00;;;;;;;6.05;4.43;;;14.50;96.80;;;;;;4925308;29;20118;-66
2023/04/18 10:23:39;;;;;;;6.20;4.07;;;14.80;96.20;;;;;;4943401;28;20031;-66
2023/04/18 10:26:09;;;;;;;6.60;4.32;;;15.50;97.00;;;;;;4936602;28;20025;-66
2023/04/18 10:28:58;;;;;;;6.47;4.32;;;15.60;95.40;;;;;;4932714;28;20038;-65
2023/04/18 10:31:28;;;;;;;8.25;4.78;;;15.60;95.30;;;;;;4928779;28;20016;-65
2023/04/18 10:33:58;;;;;;;7.38;3.88;;;15.40;96.10;;;;;;4933064;28;20020;-65
2023/04/18 10:36:25;;;;;;;5.50;3.78;;;15.20;95.80;;;;;;4927645;28;20405;-65
2023/04/18 10:38:53;;;;;;;7.03;3.88;;;15.10;95.60;;;;;;4930359;29;20377;-66
2023/04/18 10:41:32;;;;;;;6.90;4.50;;;14.70;97.10;;;;;;4928316;29;20055;-65
2023/04/18 10:44:08;;;;;;;7.47;4.13;;;14.10;97.00;;;;;;4928721;29;20788;-66
2023/04/18 10:46:35;;;;;;;6.88;3.97;;;14.40;97.50;;;;;;4923834;28;20028;-65
2023/04/18 10:49:25;;;;;;;5.78;3.97;;;15.00;96.30;;;;;;4924352;28;20531;-66
2023/04/18 10:51:59;;;;;;;7.57;4.60;;;15.60;96.40;;;;;;4917114;28;20046;-66
2023/04/18 10:54:39;;;;;;;6.28;4.07;;;16.20;95.10;;;;;;4929745;28;20024;-66
2023/04/18 10:57:10;;;;;;;6.97;4.47;;;16.70;95.30;;;;;;4934732;28;20051;-65
2023/04/18 10:59:46;;;;;;;6.90;4.40;;;16.50;94.70;;;;;;4934225;28;20418;-66
2023/04/18 11:02:32;;;;;;;7.20;4.80;;;16.30;94.50;;;;;;4928285;29;20038;-66
2023/04/18 11:05:00;;;;;;;7.30;4.80;;;16.00;95.20;;;;;;4926291;28;20056;-66
2023/04/18 11:07:39;;;;;;;7.05;4.53;;;15.80;94.90;;;;;;4927801;29;20047;-66
2023/04/18 11:10:07;;;;;;;6.45;4.70;;;15.70;95.50;;;;;;4933253;29;20020;-65
2023/04/18 11:12:34;;;;;;;9.50;5.00;;;15.30;96.00;;;;;;4928942;29;20425;-66
2023/04/18 11:15:01;;;;;;;10.73;4.93;;;15.30;95.90;;;;;;4923618;28;20147;-65
2023/04/18 11:17:28;;;;;;;8.65;4.78;;;15.10;96.10;;;;;;4922604;28;20039;-66
2023/04/18 11:20:11;;;;;;;6.35;4.55;;;14.90;96.00;;;;;;4926135;28;20028;-65
2023/04/18 11:22:50;;;;;;;8.25;5.45;;;14.80;96.70;;;;;;4927161;28;20490;-67
2023/04/18 11:25:17;;;;;;;6.35;4.47;;;14.80;96.30;;;;;;4928480;28;20079;-65
2023/04/18 11:27:44;;;;;;;10.52;4.65;;;14.80;96.60;;;;;;4930861;29;20028;-66
2023/04/18 11:30:11;;;;;;;5.97;4.25;;;15.00;97.30;;;;;;4926704;28;20091;-65
2023/04/18 11:32:36;;;;;;;6.45;4.32;;;14.80;96.90;;;;;;4931926;29;20063;-66
2023/04/18 11:35:02;;;;;;;9.65;4.72;;;14.90;96.90;;;;;;4931152;28;20070;-66
2023/04/18 11:37:28;;;;;;;6.05;4.20;;;14.40;97.20;;;;;;4931860;29;20049;-66
2023/04/18 11:39:54;;;;;;;4.65;3.50;;;14.30;97.10;;;;;;4929886;28;20020;-66
2023/04/18 11:42:20;;;;;;;6.35;4.07;;;14.30;97.40;;;;;;4930991;29;20027;-66
2023/04/18 11:44:46;;;;;;;5.28;3.78;;;14.60;97.50;;;;;;4929115;28;20332;-66
2023/04/18 11:47:24;;;;;;;7.05;4.65;;;14.90;97.60;;;;;;4924895;29;20028;-66
2023/04/18 11:49:58;;;;;;;6.47;3.67;;;14.80;96.90;;;;;;4924686;28;20545;-66
2023/04/18 11:52:25;;;;;;;5.20;3.75;;;14.90;96.70;;;;;;4928404;28;20027;-66
2023/04/18 11:54:51;;;;;;;5.55;4.00;;;14.80;96.60;;;;;;4931744;29;20023;-66
2023/04/18 11:57:28;;;;;;;8.18;4.63;;;14.80;97.70;;;;;;4930221;28;20024;-66
2023/04/18 11:59:54;;;;;;;4.70;3.60;;;15.00;96.90;;;;;;4930750;28;20585;-66
2023/04/18 12:02:21;;;;;;;7.25;4.32;;;15.10;97.40;;;;;;4920773;28;20127;-67
2023/04/18 12:04:58;;;;;;;5.25;3.42;;;15.40;96.10;;;;;;4918504;29;20081;-66
2023/04/18 12:07:36;;;;;;;6.60;4.28;;;15.60;97.00;;;;;;4926559;28;20036;-65
2023/04/18 12:10:22;;;;;;;6.40;4.20;;;16.10;96.50;;;;;;4927620;28;20036;-66
2023/04/18 12:12:49;;;;;;;7.05;4.18;;;16.20;96.00;;;;;;4923867;28;20032;-64
2023/04/18 12:15:16;;;;;;;6.90;4.15;;;15.80;95.60;;;;;;4913389;28;20121;-65
2023/04/18 12:17:52;;;;;;;7.50;4.18;;;15.90;95.70;;;;;;4923485;28;20128;-67
2023/04/18 12:20:18;;;;;;;5.82;3.92;;;15.80;96.10;;;;;;4928826;28;20027;-66
2023/04/18 12:22:48;;;;;;;5.90;4.43;;;15.90;96.30;;;;;;4928957;28;20038;-66
2023/04/18 12:25:23;;;;;;;6.55;3.80;;;15.80;96.50;;;;;;4930335;28;20027;-66
2023/04/18 12:28:03;;;;;;;7.53;4.63;;;15.90;96.10;;;;;;4927044;28;20024;-66
2023/04/18 12:30:30;;;;;;;6.40;3.42;;;15.90;95.90;;;;;;4928327;29;20024;-65
2023/04/18 12:32:58;;;;;;;6.13;4.18;;;15.90;96.70;;;;;;4929752;28;20675;-66
2023/04/18 12:35:25;;;;;;;5.30;3.65;;;15.90;95.60;;;;;;4940534;28;20150;-66
2023/04/18 12:37:53;;;;;;;7.38;4.70;;;15.80;96.20;;;;;;4930214;29;20034;-66
2023/04/18 12:40:19;;;;;;;7.00;4.60;;;15.70;95.60;;;;;;4931271;28;20023;-66
2023/04/18 12:42:46;;;;;;;7.05;4.22;;;15.40;96.80;;;;;;4929533;28;20031;-66
2023/04/18 12:45:14;;;;;;;5.75;4.40;;;15.30;96.40;;;;;;4931688;29;20283;-66
2023/04/18 12:47:41;;;;;;;7.45;4.55;;;15.20;96.50;;;;;;4931874;29;20024;-66